sensor_id;sensor_type;location;lat;lon;timestamp;P1;durP1;ratioP1;P2;durP2;ratioP2
34471;SDS011;20710;49.976;19.836;2022-10-16T00:02:51;30.05;;;19.60;;
34471;SDS011;20710;49.976;19.836;2022-10-16T00:08:52;28.38;;;18.07;;
34471;SDS011;20710;49.976;19.836;2022-10-16T00:14:53;30.97;;;18.65;;
34471;SDS011;20710;49.976;19.836;2022-10-16T00:20:55;24.85;;;18.73;;
34471;SDS011;20710;49.976;19.836;2022-10-16T00:27:03;29.90;;;20.57;;
34471;SDS011;20710;49.976;19.836;2022-10-16T00:33:04;29.67;;;19.62;;
34471;SDS011;20710;49.976;19.836;2022-10-16T00:39:06;24.50;;;19.02;;
34471;SDS011;20710;49.976;19.836;2022-10-16T00:45:08;28.90;;;20.50;;
34471;SDS011;20710;49.976;19.836;2022-10-16T00:51:10;31.25;;;21.17;;
34471;SDS011;20710;49.976;19.836;2022-10-16T00:57:11;29.60;;;21.85;;
34471;SDS011;20710;49.976;19.836;2022-10-16T01:03:23;37.23;;;24.27;;
34471;SDS011;20710;49.976;19.836;2022-10-16T01:16:00;37.83;;;24.87;;
34471;SDS011;20710;49.976;19.836;2022-10-16T01:21:58;33.33;;;21.75;;
34471;SDS011;20710;49.976;19.836;2022-10-16T01:28:01;36.45;;;23.35;;
34471;SDS011;20710;49.976;19.836;2022-10-16T01:34:13;36.03;;;26.35;;
34471;SDS011;20710;49.976;19.836;2022-10-16T01:40:32;32.78;;;23.12;;
34471;SDS011;20710;49.976;19.836;2022-10-16T01:46:39;39.70;;;25.62;;
34471;SDS011;20710;49.976;19.836;2022-10-16T01:52:45;43.75;;;26.05;;
34471;SDS011;20710;49.976;19.836;2022-10-16T01:59:06;45.60;;;28.05;;
34471;SDS011;20710;49.976;19.836;2022-10-16T02:05:20;46.55;;;29.55;;
34471;SDS011;20710;49.976;19.836;2022-10-16T02:11:43;47.25;;;29.63;;
34471;SDS011;20710;49.976;19.836;2022-10-16T02:17:45;38.70;;;26.30;;
34471;SDS011;20710;49.976;19.836;2022-10-16T02:24:01;38.02;;;25.30;;
34471;SDS011;20710;49.976;19.836;2022-10-16T02:30:07;35.40;;;23.18;;
34471;SDS011;20710;49.976;19.836;2022-10-16T02:36:24;32.78;;;22.50;;
34471;SDS011;20710;49.976;19.836;2022-10-16T02:42:29;31.65;;;21.40;;
34471;SDS011;20710;49.976;19.836;2022-10-16T02:48:37;29.40;;;21.85;;
34471;SDS011;20710;49.976;19.836;2022-10-16T02:54:39;29.12;;;19.65;;
34471;SDS011;20710;49.976;19.836;2022-10-16T03:00:41;29.18;;;19.48;;
34471;SDS011;20710;49.976;19.836;2022-10-16T03:06:43;30.88;;;20.97;;
34471;SDS011;20710;49.976;19.836;2022-10-16T03:12:44;30.37;;;20.40;;
34471;SDS011;20710;49.976;19.836;2022-10-16T03:18:49;31.68;;;22.32;;
34471;SDS011;20710;49.976;19.836;2022-10-16T03:24:50;30.75;;;21.07;;
34471;SDS011;20710;49.976;19.836;2022-10-16T03:30:51;30.52;;;20.97;;
34471;SDS011;20710;49.976;19.836;2022-10-16T03:36:54;30.15;;;19.12;;
34471;SDS011;20710;49.976;19.836;2022-10-16T03:42:55;26.27;;;19.23;;
34471;SDS011;20710;49.976;19.836;2022-10-16T03:48:57;25.85;;;17.92;;
34471;SDS011;20710;49.976;19.836;2022-10-16T03:54:59;29.77;;;21.50;;
34471;SDS011;20710;49.976;19.836;2022-10-16T04:01:01;37.20;;;20.97;;
34471;SDS011;20710;49.976;19.836;2022-10-16T04:07:03;32.98;;;19.82;;
34471;SDS011;20710;49.976;19.836;2022-10-16T04:13:04;24.27;;;18.25;;
34471;SDS011;20710;49.976;19.836;2022-10-16T04:19:06;24.05;;;16.55;;
34471;SDS011;20710;49.976;19.836;2022-10-16T04:25:07;22.27;;;15.85;;
34471;SDS011;20710;49.976;19.836;2022-10-16T04:31:09;24.67;;;17.57;;
34471;SDS011;20710;49.976;19.836;2022-10-16T04:37:11;28.65;;;17.92;;
34471;SDS011;20710;49.976;19.836;2022-10-16T04:43:12;27.95;;;17.42;;
34471;SDS011;20710;49.976;19.836;2022-10-16T04:49:13;21.25;;;14.63;;
34471;SDS011;20710;49.976;19.836;2022-10-16T04:55:15;21.97;;;15.63;;
34471;SDS011;20710;49.976;19.836;2022-10-16T05:01:16;23.40;;;15.55;;
34471;SDS011;20710;49.976;19.836;2022-10-16T05:07:17;18.95;;;14.25;;
34471;SDS011;20710;49.976;19.836;2022-10-16T05:13:18;17.77;;;13.30;;
34471;SDS011;20710;49.976;19.836;2022-10-16T05:19:20;18.92;;;14.40;;
34471;SDS011;20710;49.976;19.836;2022-10-16T05:25:21;15.95;;;12.25;;
34471;SDS011;20710;49.976;19.836;2022-10-16T05:31:23;20.55;;;13.10;;
34471;SDS011;20710;49.976;19.836;2022-10-16T05:37:24;20.65;;;15.28;;
34471;SDS011;20710;49.976;19.836;2022-10-16T05:43:27;27.40;;;17.87;;
34471;SDS011;20710;49.976;19.836;2022-10-16T05:49:29;30.50;;;19.92;;
34471;SDS011;20710;49.976;19.836;2022-10-16T05:55:30;20.88;;;13.62;;
34471;SDS011;20710;49.976;19.836;2022-10-16T06:01:33;22.35;;;16.50;;
34471;SDS011;20710;49.976;19.836;2022-10-16T06:07:36;24.85;;;17.87;;
34471;SDS011;20710;49.976;19.836;2022-10-16T06:13:37;25.25;;;17.40;;
34471;SDS011;20710;49.976;19.836;2022-10-16T06:19:39;33.38;;;21.00;;
34471;SDS011;20710;49.976;19.836;2022-10-16T06:25:41;38.70;;;23.05;;
34471;SDS011;20710;49.976;19.836;2022-10-16T06:31:42;29.92;;;21.45;;
34471;SDS011;20710;49.976;19.836;2022-10-16T06:37:44;37.35;;;22.73;;
34471;SDS011;20710;49.976;19.836;2022-10-16T06:43:45;31.55;;;20.08;;
34471;SDS011;20710;49.976;19.836;2022-10-16T06:49:47;30.48;;;20.72;;
34471;SDS011;20710;49.976;19.836;2022-10-16T06:55:49;30.80;;;22.07;;
34471;SDS011;20710;49.976;19.836;2022-10-16T07:01:53;29.65;;;20.12;;
34471;SDS011;20710;49.976;19.836;2022-10-16T07:07:54;36.77;;;22.42;;
34471;SDS011;20710;49.976;19.836;2022-10-16T07:13:55;29.70;;;20.10;;
34471;SDS011;20710;49.976;19.836;2022-10-16T07:19:57;23.77;;;17.23;;
34471;SDS011;20710;49.976;19.836;2022-10-16T07:25:58;26.30;;;16.75;;
34471;SDS011;20710;49.976;19.836;2022-10-16T07:32:01;23.47;;;16.45;;
34471;SDS011;20710;49.976;19.836;2022-10-16T07:38:03;17.98;;;14.28;;
34471;SDS011;20710;49.976;19.836;2022-10-16T07:44:04;20.15;;;14.35;;
34471;SDS011;20710;49.976;19.836;2022-10-16T07:50:06;24.57;;;16.45;;
34471;SDS011;20710;49.976;19.836;2022-10-16T07:56:09;20.10;;;15.00;;
34471;SDS011;20710;49.976;19.836;2022-10-16T08:02:11;19.85;;;14.93;;
34471;SDS011;20710;49.976;19.836;2022-10-16T08:08:14;20.45;;;14.23;;
34471;SDS011;20710;49.976;19.836;2022-10-16T08:14:17;18.12;;;13.05;;
34471;SDS011;20710;49.976;19.836;2022-10-16T08:20:19;17.15;;;13.40;;
34471;SDS011;20710;49.976;19.836;2022-10-16T08:26:21;14.55;;;10.72;;
34471;SDS011;20710;49.976;19.836;2022-10-16T08:32:22;14.00;;;10.78;;
34471;SDS011;20710;49.976;19.836;2022-10-16T08:51:02;13.03;;;9.35;;
34471;SDS011;20710;49.976;19.836;2022-10-16T08:57:12;12.40;;;8.40;;
34471;SDS011;20710;49.976;19.836;2022-10-16T09:17:06;13.00;;;7.97;;
34471;SDS011;20710;49.976;19.836;2022-10-16T09:23:40;15.25;;;7.95;;
34471;SDS011;20710;49.976;19.836;2022-10-16T09:29:41;9.03;;;7.20;;
34471;SDS011;20710;49.976;19.836;2022-10-16T09:41:56;9.15;;;7.53;;
34471;SDS011;20710;49.976;19.836;2022-10-16T09:48:00;10.63;;;7.75;;
34471;SDS011;20710;49.976;19.836;2022-10-16T10:00:20;9.95;;;7.47;;
34471;SDS011;20710;49.976;19.836;2022-10-16T10:06:27;11.45;;;6.80;;
34471;SDS011;20710;49.976;19.836;2022-10-16T10:13:22;6.95;;;6.08;;
34471;SDS011;20710;49.976;19.836;2022-10-16T10:19:26;9.55;;;6.20;;
34471;SDS011;20710;49.976;19.836;2022-10-16T10:25:37;6.97;;;5.92;;
34471;SDS011;20710;49.976;19.836;2022-10-16T10:32:34;7.37;;;5.67;;
34471;SDS011;20710;49.976;19.836;2022-10-16T10:44:35;6.15;;;5.33;;
34471;SDS011;20710;49.976;19.836;2022-10-16T10:51:04;6.67;;;5.20;;
34471;SDS011;20710;49.976;19.836;2022-10-16T10:57:49;6.95;;;4.83;;
34471;SDS011;20710;49.976;19.836;2022-10-16T11:04:10;6.00;;;4.70;;
34471;SDS011;20710;49.976;19.836;2022-10-16T11:11:04;5.87;;;5.12;;
34471;SDS011;20710;49.976;19.836;2022-10-16T11:17:17;4.83;;;4.20;;
34471;SDS011;20710;49.976;19.836;2022-10-16T11:23:37;6.53;;;4.78;;
34471;SDS011;20710;49.976;19.836;2022-10-16T11:30:00;6.30;;;4.62;;
34471;SDS011;20710;49.976;19.836;2022-10-16T11:36:11;5.95;;;4.80;;
34471;SDS011;20710;49.976;19.836;2022-10-16T11:42:21;6.65;;;4.97;;
34471;SDS011;20710;49.976;19.836;2022-10-16T11:54:55;4.97;;;4.42;;
34471;SDS011;20710;49.976;19.836;2022-10-16T12:01:02;6.62;;;4.80;;
34471;SDS011;20710;49.976;19.836;2022-10-16T12:07:34;8.90;;;5.20;;
34471;SDS011;20710;49.976;19.836;2022-10-16T12:13:43;8.13;;;4.65;;
34471;SDS011;20710;49.976;19.836;2022-10-16T12:20:18;6.45;;;5.55;;
34471;SDS011;20710;49.976;19.836;2022-10-16T12:26:27;7.92;;;5.30;;
34471;SDS011;20710;49.976;19.836;2022-10-16T12:38:59;7.85;;;4.83;;
34471;SDS011;20710;49.976;19.836;2022-10-16T12:45:12;6.70;;;4.12;;
34471;SDS011;20710;49.976;19.836;2022-10-16T12:51:34;5.67;;;3.92;;
34471;SDS011;20710;49.976;19.836;2022-10-16T13:04:10;8.83;;;4.33;;
34471;SDS011;20710;49.976;19.836;2022-10-16T13:30:31;7.30;;;4.45;;
34471;SDS011;20710;49.976;19.836;2022-10-16T13:36:45;6.28;;;4.67;;
34471;SDS011;20710;49.976;19.836;2022-10-16T13:42:52;6.22;;;4.83;;
34471;SDS011;20710;49.976;19.836;2022-10-16T13:49:04;7.75;;;4.67;;
34471;SDS011;20710;49.976;19.836;2022-10-16T13:55:13;7.17;;;4.55;;
34471;SDS011;20710;49.976;19.836;2022-10-16T14:01:23;8.53;;;4.60;;
34471;SDS011;20710;49.976;19.836;2022-10-16T14:14:11;6.70;;;4.65;;
34471;SDS011;20710;49.976;19.836;2022-10-16T14:20:17;5.92;;;4.35;;
34471;SDS011;20710;49.976;19.836;2022-10-16T14:26:24;10.78;;;5.72;;
34471;SDS011;20710;49.976;19.836;2022-10-16T14:32:28;4.97;;;4.25;;
34471;SDS011;20710;49.976;19.836;2022-10-16T14:38:30;6.42;;;4.45;;
34471;SDS011;20710;49.976;19.836;2022-10-16T14:44:35;6.40;;;4.65;;
34471;SDS011;20710;49.976;19.836;2022-10-16T14:50:46;6.72;;;5.05;;
34471;SDS011;20710;49.976;19.836;2022-10-16T15:02:57;8.03;;;4.95;;
34471;SDS011;20710;49.976;19.836;2022-10-16T15:08:58;6.45;;;4.80;;
34471;SDS011;20710;49.976;19.836;2022-10-16T15:21:29;5.92;;;4.65;;
34471;SDS011;20710;49.976;19.836;2022-10-16T15:27:32;7.90;;;5.17;;
34471;SDS011;20710;49.976;19.836;2022-10-16T15:33:37;9.68;;;5.25;;
34471;SDS011;20710;49.976;19.836;2022-10-16T15:39:39;9.35;;;5.53;;
34471;SDS011;20710;49.976;19.836;2022-10-16T15:45:40;8.53;;;5.70;;
34471;SDS011;20710;49.976;19.836;2022-10-16T15:51:41;8.05;;;6.15;;
34471;SDS011;20710;49.976;19.836;2022-10-16T15:57:43;13.08;;;6.90;;
34471;SDS011;20710;49.976;19.836;2022-10-16T16:03:45;9.30;;;6.60;;
34471;SDS011;20710;49.976;19.836;2022-10-16T16:09:46;12.05;;;7.90;;
34471;SDS011;20710;49.976;19.836;2022-10-16T16:15:48;11.45;;;7.08;;
34471;SDS011;20710;49.976;19.836;2022-10-16T16:21:52;12.68;;;9.28;;
34471;SDS011;20710;49.976;19.836;2022-10-16T16:27:53;12.15;;;7.70;;
34471;SDS011;20710;49.976;19.836;2022-10-16T16:33:55;17.52;;;9.98;;
34471;SDS011;20710;49.976;19.836;2022-10-16T16:39:58;20.77;;;11.28;;
34471;SDS011;20710;49.976;19.836;2022-10-16T16:46:00;13.93;;;10.18;;
34471;SDS011;20710;49.976;19.836;2022-10-16T16:52:02;13.80;;;10.10;;
34471;SDS011;20710;49.976;19.836;2022-10-16T16:58:05;18.65;;;11.57;;
34471;SDS011;20710;49.976;19.836;2022-10-16T17:04:06;17.50;;;8.80;;
34471;SDS011;20710;49.976;19.836;2022-10-16T17:10:08;16.80;;;10.35;;
34471;SDS011;20710;49.976;19.836;2022-10-16T17:16:10;15.35;;;11.03;;
34471;SDS011;20710;49.976;19.836;2022-10-16T17:22:12;17.35;;;9.85;;
34471;SDS011;20710;49.976;19.836;2022-10-16T17:28:13;12.98;;;9.25;;
34471;SDS011;20710;49.976;19.836;2022-10-16T17:34:15;16.02;;;9.15;;
34471;SDS011;20710;49.976;19.836;2022-10-16T17:40:17;16.27;;;11.25;;
34471;SDS011;20710;49.976;19.836;2022-10-16T17:46:19;14.05;;;9.03;;
34471;SDS011;20710;49.976;19.836;2022-10-16T17:52:22;23.35;;;12.20;;
34471;SDS011;20710;49.976;19.836;2022-10-16T17:58:23;22.27;;;14.87;;
34471;SDS011;20710;49.976;19.836;2022-10-16T18:04:25;18.15;;;12.18;;
34471;SDS011;20710;49.976;19.836;2022-10-16T18:10:26;18.50;;;10.55;;
34471;SDS011;20710;49.976;19.836;2022-10-16T18:16:28;16.95;;;9.95;;
34471;SDS011;20710;49.976;19.836;2022-10-16T18:22:34;16.32;;;11.38;;
34471;SDS011;20710;49.976;19.836;2022-10-16T18:28:36;24.90;;;18.07;;
34471;SDS011;20710;49.976;19.836;2022-10-16T18:34:37;27.13;;;17.32;;
34471;SDS011;20710;49.976;19.836;2022-10-16T18:40:39;29.90;;;19.05;;
34471;SDS011;20710;49.976;19.836;2022-10-16T18:46:41;29.07;;;19.12;;
34471;SDS011;20710;49.976;19.836;2022-10-16T18:52:46;26.42;;;17.98;;
34471;SDS011;20710;49.976;19.836;2022-10-16T18:58:50;49.10;;;26.62;;
34471;SDS011;20710;49.976;19.836;2022-10-16T19:04:53;38.53;;;24.52;;
34471;SDS011;20710;49.976;19.836;2022-10-16T19:10:54;32.05;;;20.70;;
34471;SDS011;20710;49.976;19.836;2022-10-16T19:16:56;28.23;;;19.80;;
34471;SDS011;20710;49.976;19.836;2022-10-16T19:22:57;26.20;;;16.52;;
34471;SDS011;20710;49.976;19.836;2022-10-16T19:28:59;36.55;;;21.57;;
34471;SDS011;20710;49.976;19.836;2022-10-16T19:35:03;46.30;;;30.45;;
34471;SDS011;20710;49.976;19.836;2022-10-16T19:41:06;48.15;;;31.15;;
34471;SDS011;20710;49.976;19.836;2022-10-16T19:47:12;35.58;;;21.97;;
34471;SDS011;20710;49.976;19.836;2022-10-16T19:53:14;43.73;;;25.68;;
34471;SDS011;20710;49.976;19.836;2022-10-16T19:59:15;33.45;;;22.48;;
34471;SDS011;20710;49.976;19.836;2022-10-16T20:05:18;36.73;;;23.32;;
34471;SDS011;20710;49.976;19.836;2022-10-16T20:11:21;49.50;;;30.20;;
34471;SDS011;20710;49.976;19.836;2022-10-16T20:17:25;33.05;;;23.12;;
34471;SDS011;20710;49.976;19.836;2022-10-16T20:23:26;37.25;;;23.15;;
34471;SDS011;20710;49.976;19.836;2022-10-16T20:29:27;39.75;;;25.75;;
34471;SDS011;20710;49.976;19.836;2022-10-16T20:35:33;40.67;;;27.60;;
34471;SDS011;20710;49.976;19.836;2022-10-16T20:41:37;50.20;;;31.62;;
34471;SDS011;20710;49.976;19.836;2022-10-16T20:47:38;40.67;;;26.70;;
34471;SDS011;20710;49.976;19.836;2022-10-16T20:53:40;42.15;;;25.30;;
34471;SDS011;20710;49.976;19.836;2022-10-16T20:59:43;29.23;;;20.02;;
34471;SDS011;20710;49.976;19.836;2022-10-16T21:05:45;36.28;;;22.50;;
34471;SDS011;20710;49.976;19.836;2022-10-16T21:11:46;29.65;;;20.90;;
34471;SDS011;20710;49.976;19.836;2022-10-16T21:17:47;40.12;;;22.80;;
34471;SDS011;20710;49.976;19.836;2022-10-16T21:23:49;33.88;;;21.73;;
34471;SDS011;20710;49.976;19.836;2022-10-16T21:29:52;27.32;;;19.40;;
34471;SDS011;20710;49.976;19.836;2022-10-16T21:35:54;30.40;;;20.27;;
34471;SDS011;20710;49.976;19.836;2022-10-16T21:41:55;24.95;;;18.15;;
34471;SDS011;20710;49.976;19.836;2022-10-16T21:47:56;28.07;;;17.67;;
34471;SDS011;20710;49.976;19.836;2022-10-16T21:53:57;23.35;;;16.65;;
34471;SDS011;20710;49.976;19.836;2022-10-16T22:00:00;23.15;;;16.62;;
34471;SDS011;20710;49.976;19.836;2022-10-16T22:06:03;26.37;;;16.70;;
34471;SDS011;20710;49.976;19.836;2022-10-16T22:12:06;25.50;;;17.32;;
34471;SDS011;20710;49.976;19.836;2022-10-16T22:18:07;22.00;;;15.15;;
34471;SDS011;20710;49.976;19.836;2022-10-16T22:24:09;22.27;;;13.13;;
34471;SDS011;20710;49.976;19.836;2022-10-16T22:30:10;24.87;;;16.20;;
34471;SDS011;20710;49.976;19.836;2022-10-16T22:36:13;20.75;;;13.75;;
34471;SDS011;20710;49.976;19.836;2022-10-16T22:42:14;23.92;;;14.15;;
34471;SDS011;20710;49.976;19.836;2022-10-16T22:48:16;21.87;;;14.33;;
34471;SDS011;20710;49.976;19.836;2022-10-16T22:54:17;22.42;;;14.47;;
34471;SDS011;20710;49.976;19.836;2022-10-16T23:00:19;26.97;;;14.33;;
34471;SDS011;20710;49.976;19.836;2022-10-16T23:06:20;22.98;;;15.28;;
34471;SDS011;20710;49.976;19.836;2022-10-16T23:12:22;22.32;;;15.48;;
34471;SDS011;20710;49.976;19.836;2022-10-16T23:18:25;25.95;;;15.65;;
34471;SDS011;20710;49.976;19.836;2022-10-16T23:24:26;21.10;;;13.83;;
34471;SDS011;20710;49.976;19.836;2022-10-16T23:30:32;18.77;;;14.07;;
34471;SDS011;20710;49.976;19.836;2022-10-16T23:36:33;28.80;;;14.38;;
34471;SDS011;20710;49.976;19.836;2022-10-16T23:42:35;27.37;;;16.25;;
34471;SDS011;20710;49.976;19.836;2022-10-16T23:48:36;25.32;;;16.10;;
34471;SDS011;20710;49.976;19.836;2022-10-16T23:54:38;27.95;;;17.17;;
